sensor_id;sensor_type;location;lat;lon;timestamp;P1;durP1;ratioP1;P2;durP2;ratioP2
5898;SDS011;2975;50.956;6.962;2024-01-11T00:00:44;36.83;;;15.37;;
5898;SDS011;2975;50.956;6.962;2024-01-11T00:03:10;37.97;;;17.20;;
5898;SDS011;2975;50.956;6.962;2024-01-11T00:05:36;34.07;;;16.87;;
5898;SDS011;2975;50.956;6.962;2024-01-11T00:08:01;36.13;;;18.03;;
5898;SDS011;2975;50.956;6.962;2024-01-11T00:10:27;34.07;;;16.83;;
5898;SDS011;2975;50.956;6.962;2024-01-11T00:12:53;33.47;;;17.07;;
5898;SDS011;2975;50.956;6.962;2024-01-11T00:15:18;31.83;;;16.70;;
5898;SDS011;2975;50.956;6.962;2024-01-11T00:17:44;38.20;;;17.57;;
5898;SDS011;2975;50.956;6.962;2024-01-11T00:20:10;33.83;;;16.20;;
5898;SDS011;2975;50.956;6.962;2024-01-11T00:22:36;33.27;;;16.80;;
5898;SDS011;2975;50.956;6.962;2024-01-11T00:25:02;32.83;;;16.37;;
5898;SDS011;2975;50.956;6.962;2024-01-11T00:27:28;35.30;;;16.37;;
5898;SDS011;2975;50.956;6.962;2024-01-11T00:29:54;35.10;;;16.50;;
5898;SDS011;2975;50.956;6.962;2024-01-11T00:32:20;34.67;;;16.57;;
5898;SDS011;2975;50.956;6.962;2024-01-11T00:34:48;35.67;;;15.63;;
5898;SDS011;2975;50.956;6.962;2024-01-11T00:37:14;29.23;;;15.70;;
5898;SDS011;2975;50.956;6.962;2024-01-11T00:39:40;31.97;;;15.93;;
5898;SDS011;2975;50.956;6.962;2024-01-11T00:42:06;37.10;;;17.23;;
5898;SDS011;2975;50.956;6.962;2024-01-11T00:44:31;27.03;;;14.53;;
5898;SDS011;2975;50.956;6.962;2024-01-11T00:46:57;35.00;;;16.10;;
5898;SDS011;2975;50.956;6.962;2024-01-11T00:49:23;32.83;;;16.13;;
5898;SDS011;2975;50.956;6.962;2024-01-11T00:51:48;31.17;;;15.93;;
5898;SDS011;2975;50.956;6.962;2024-01-11T00:54:14;32.93;;;16.23;;
5898;SDS011;2975;50.956;6.962;2024-01-11T00:56:40;29.47;;;15.43;;
5898;SDS011;2975;50.956;6.962;2024-01-11T00:59:05;38.53;;;16.37;;
5898;SDS011;2975;50.956;6.962;2024-01-11T01:01:31;30.10;;;15.60;;
5898;SDS011;2975;50.956;6.962;2024-01-11T01:03:56;33.33;;;16.33;;
5898;SDS011;2975;50.956;6.962;2024-01-11T01:06:22;31.50;;;15.23;;
5898;SDS011;2975;50.956;6.962;2024-01-11T01:08:48;34.93;;;16.20;;
5898;SDS011;2975;50.956;6.962;2024-01-11T01:11:13;29.73;;;15.13;;
5898;SDS011;2975;50.956;6.962;2024-01-11T01:13:39;31.60;;;16.33;;
5898;SDS011;2975;50.956;6.962;2024-01-11T01:16:05;33.47;;;16.03;;
5898;SDS011;2975;50.956;6.962;2024-01-11T01:18:30;36.73;;;15.37;;
5898;SDS011;2975;50.956;6.962;2024-01-11T01:20:56;28.67;;;15.07;;
5898;SDS011;2975;50.956;6.962;2024-01-11T01:23:21;33.00;;;15.97;;
5898;SDS011;2975;50.956;6.962;2024-01-11T01:25:48;31.83;;;15.97;;
5898;SDS011;2975;50.956;6.962;2024-01-11T01:28:14;32.33;;;15.90;;
5898;SDS011;2975;50.956;6.962;2024-01-11T01:30:39;32.27;;;15.67;;
5898;SDS011;2975;50.956;6.962;2024-01-11T01:33:05;28.37;;;14.00;;
5898;SDS011;2975;50.956;6.962;2024-01-11T01:35:31;36.90;;;16.80;;
5898;SDS011;2975;50.956;6.962;2024-01-11T01:37:57;35.83;;;16.77;;
5898;SDS011;2975;50.956;6.962;2024-01-11T01:40:22;32.50;;;17.03;;
5898;SDS011;2975;50.956;6.962;2024-01-11T01:42:48;38.53;;;17.63;;
5898;SDS011;2975;50.956;6.962;2024-01-11T01:45:14;41.60;;;17.30;;
5898;SDS011;2975;50.956;6.962;2024-01-11T01:47:40;38.93;;;16.30;;
5898;SDS011;2975;50.956;6.962;2024-01-11T01:50:07;31.80;;;15.63;;
5898;SDS011;2975;50.956;6.962;2024-01-11T01:52:35;31.47;;;16.60;;
5898;SDS011;2975;50.956;6.962;2024-01-11T01:55:02;31.97;;;15.17;;
5898;SDS011;2975;50.956;6.962;2024-01-11T01:57:29;32.60;;;16.50;;
5898;SDS011;2975;50.956;6.962;2024-01-11T01:59:57;50.10;;;18.07;;
5898;SDS011;2975;50.956;6.962;2024-01-11T02:02:22;36.60;;;16.70;;
5898;SDS011;2975;50.956;6.962;2024-01-11T02:04:48;38.23;;;18.10;;
5898;SDS011;2975;50.956;6.962;2024-01-11T02:07:14;38.30;;;17.47;;
5898;SDS011;2975;50.956;6.962;2024-01-11T02:09:41;40.53;;;17.80;;
5898;SDS011;2975;50.956;6.962;2024-01-11T02:12:09;29.30;;;16.23;;
5898;SDS011;2975;50.956;6.962;2024-01-11T02:14:37;39.07;;;17.67;;
5898;SDS011;2975;50.956;6.962;2024-01-11T02:17:03;37.70;;;17.53;;
5898;SDS011;2975;50.956;6.962;2024-01-11T02:19:28;41.53;;;17.47;;
5898;SDS011;2975;50.956;6.962;2024-01-11T02:21:54;34.30;;;17.13;;
5898;SDS011;2975;50.956;6.962;2024-01-11T02:24:20;37.30;;;17.57;;
5898;SDS011;2975;50.956;6.962;2024-01-11T02:26:59;38.80;;;17.63;;
5898;SDS011;2975;50.956;6.962;2024-01-11T02:29:26;33.47;;;17.87;;
5898;SDS011;2975;50.956;6.962;2024-01-11T02:31:52;34.37;;;17.17;;
5898;SDS011;2975;50.956;6.962;2024-01-11T02:34:18;38.00;;;16.97;;
5898;SDS011;2975;50.956;6.962;2024-01-11T02:36:43;35.53;;;17.00;;
5898;SDS011;2975;50.956;6.962;2024-01-11T02:39:10;39.67;;;17.37;;
5898;SDS011;2975;50.956;6.962;2024-01-11T02:41:37;35.70;;;17.17;;
5898;SDS011;2975;50.956;6.962;2024-01-11T02:44:03;39.63;;;17.47;;
5898;SDS011;2975;50.956;6.962;2024-01-11T02:46:29;40.70;;;18.13;;
5898;SDS011;2975;50.956;6.962;2024-01-11T02:48:55;35.67;;;17.43;;
5898;SDS011;2975;50.956;6.962;2024-01-11T02:51:21;36.30;;;17.87;;
5898;SDS011;2975;50.956;6.962;2024-01-11T02:53:46;40.03;;;17.97;;
5898;SDS011;2975;50.956;6.962;2024-01-11T02:56:12;37.10;;;18.27;;
5898;SDS011;2975;50.956;6.962;2024-01-11T02:58:37;41.03;;;18.53;;
5898;SDS011;2975;50.956;6.962;2024-01-11T03:01:03;32.43;;;17.73;;
5898;SDS011;2975;50.956;6.962;2024-01-11T03:03:29;43.63;;;18.87;;
5898;SDS011;2975;50.956;6.962;2024-01-11T03:05:54;41.03;;;19.27;;
5898;SDS011;2975;50.956;6.962;2024-01-11T03:08:20;37.60;;;17.60;;
5898;SDS011;2975;50.956;6.962;2024-01-11T03:10:45;40.20;;;17.43;;
5898;SDS011;2975;50.956;6.962;2024-01-11T03:13:11;40.37;;;17.90;;
5898;SDS011;2975;50.956;6.962;2024-01-11T03:15:37;40.40;;;18.13;;
5898;SDS011;2975;50.956;6.962;2024-01-11T03:18:03;40.37;;;17.93;;
5898;SDS011;2975;50.956;6.962;2024-01-11T03:20:29;38.83;;;18.37;;
5898;SDS011;2975;50.956;6.962;2024-01-11T03:22:55;34.57;;;15.90;;
5898;SDS011;2975;50.956;6.962;2024-01-11T03:25:21;35.00;;;16.93;;
5898;SDS011;2975;50.956;6.962;2024-01-11T03:27:46;38.00;;;17.17;;
5898;SDS011;2975;50.956;6.962;2024-01-11T03:30:12;37.93;;;17.30;;
5898;SDS011;2975;50.956;6.962;2024-01-11T03:32:38;40.70;;;16.37;;
5898;SDS011;2975;50.956;6.962;2024-01-11T03:35:05;33.93;;;15.53;;
5898;SDS011;2975;50.956;6.962;2024-01-11T03:37:32;33.27;;;16.37;;
5898;SDS011;2975;50.956;6.962;2024-01-11T03:39:58;36.70;;;16.07;;
5898;SDS011;2975;50.956;6.962;2024-01-11T03:42:24;37.07;;;18.17;;
5898;SDS011;2975;50.956;6.962;2024-01-11T03:44:49;37.40;;;17.47;;
5898;SDS011;2975;50.956;6.962;2024-01-11T03:47:15;36.27;;;16.20;;
5898;SDS011;2975;50.956;6.962;2024-01-11T03:49:40;29.40;;;15.03;;
5898;SDS011;2975;50.956;6.962;2024-01-11T03:52:06;35.63;;;17.23;;
5898;SDS011;2975;50.956;6.962;2024-01-11T03:54:32;34.37;;;15.70;;
5898;SDS011;2975;50.956;6.962;2024-01-11T03:56:57;33.07;;;16.70;;
5898;SDS011;2975;50.956;6.962;2024-01-11T03:59:23;37.97;;;17.57;;
5898;SDS011;2975;50.956;6.962;2024-01-11T04:01:48;35.33;;;16.50;;
5898;SDS011;2975;50.956;6.962;2024-01-11T04:04:14;33.53;;;16.80;;
5898;SDS011;2975;50.956;6.962;2024-01-11T04:06:39;40.40;;;17.40;;
5898;SDS011;2975;50.956;6.962;2024-01-11T04:09:05;36.33;;;17.43;;
5898;SDS011;2975;50.956;6.962;2024-01-11T04:11:31;37.87;;;18.23;;
5898;SDS011;2975;50.956;6.962;2024-01-11T04:13:57;36.43;;;16.03;;
5898;SDS011;2975;50.956;6.962;2024-01-11T04:16:22;33.70;;;16.53;;
5898;SDS011;2975;50.956;6.962;2024-01-11T04:18:48;34.67;;;15.30;;
5898;SDS011;2975;50.956;6.962;2024-01-11T04:21:23;33.40;;;15.97;;
5898;SDS011;2975;50.956;6.962;2024-01-11T04:23:50;37.87;;;16.33;;
5898;SDS011;2975;50.956;6.962;2024-01-11T04:26:16;34.20;;;15.77;;
5898;SDS011;2975;50.956;6.962;2024-01-11T04:28:44;39.00;;;16.90;;
5898;SDS011;2975;50.956;6.962;2024-01-11T04:31:10;33.47;;;16.07;;
5898;SDS011;2975;50.956;6.962;2024-01-11T04:33:39;39.63;;;16.63;;
5898;SDS011;2975;50.956;6.962;2024-01-11T04:36:05;33.80;;;16.70;;
5898;SDS011;2975;50.956;6.962;2024-01-11T04:38:31;37.43;;;16.43;;
5898;SDS011;2975;50.956;6.962;2024-01-11T04:40:56;35.83;;;17.80;;
5898;SDS011;2975;50.956;6.962;2024-01-11T04:43:22;36.90;;;16.07;;
5898;SDS011;2975;50.956;6.962;2024-01-11T04:45:47;32.20;;;16.13;;
5898;SDS011;2975;50.956;6.962;2024-01-11T04:48:13;38.77;;;16.93;;
5898;SDS011;2975;50.956;6.962;2024-01-11T04:50:38;33.07;;;16.03;;
5898;SDS011;2975;50.956;6.962;2024-01-11T04:53:04;36.53;;;18.80;;
5898;SDS011;2975;50.956;6.962;2024-01-11T04:55:30;36.00;;;16.97;;
5898;SDS011;2975;50.956;6.962;2024-01-11T04:57:55;38.40;;;17.53;;
5898;SDS011;2975;50.956;6.962;2024-01-11T05:00:21;35.67;;;16.87;;
5898;SDS011;2975;50.956;6.962;2024-01-11T05:02:46;37.53;;;17.23;;
5898;SDS011;2975;50.956;6.962;2024-01-11T05:05:12;35.47;;;17.17;;
5898;SDS011;2975;50.956;6.962;2024-01-11T05:07:38;37.47;;;16.80;;
5898;SDS011;2975;50.956;6.962;2024-01-11T05:10:03;39.23;;;16.57;;
5898;SDS011;2975;50.956;6.962;2024-01-11T05:12:29;33.17;;;16.57;;
5898;SDS011;2975;50.956;6.962;2024-01-11T05:14:55;39.30;;;16.70;;
5898;SDS011;2975;50.956;6.962;2024-01-11T05:17:20;38.43;;;17.70;;
5898;SDS011;2975;50.956;6.962;2024-01-11T05:19:46;32.90;;;16.20;;
5898;SDS011;2975;50.956;6.962;2024-01-11T05:22:11;36.00;;;16.50;;
5898;SDS011;2975;50.956;6.962;2024-01-11T05:24:37;38.83;;;17.90;;
5898;SDS011;2975;50.956;6.962;2024-01-11T05:27:03;36.80;;;17.30;;
5898;SDS011;2975;50.956;6.962;2024-01-11T05:29:29;39.90;;;18.07;;
5898;SDS011;2975;50.956;6.962;2024-01-11T05:31:54;35.93;;;17.67;;
5898;SDS011;2975;50.956;6.962;2024-01-11T05:34:20;30.47;;;16.17;;
5898;SDS011;2975;50.956;6.962;2024-01-11T05:36:46;36.90;;;17.03;;
5898;SDS011;2975;50.956;6.962;2024-01-11T05:39:11;40.97;;;16.57;;
5898;SDS011;2975;50.956;6.962;2024-01-11T05:41:37;34.83;;;17.37;;
5898;SDS011;2975;50.956;6.962;2024-01-11T05:44:02;36.60;;;16.40;;
5898;SDS011;2975;50.956;6.962;2024-01-11T05:46:29;29.60;;;15.77;;
5898;SDS011;2975;50.956;6.962;2024-01-11T05:48:55;35.90;;;16.80;;
5898;SDS011;2975;50.956;6.962;2024-01-11T05:51:21;39.33;;;16.67;;
5898;SDS011;2975;50.956;6.962;2024-01-11T05:53:46;36.33;;;15.93;;
5898;SDS011;2975;50.956;6.962;2024-01-11T05:56:12;38.33;;;18.93;;
5898;SDS011;2975;50.956;6.962;2024-01-11T05:58:39;38.33;;;17.40;;
5898;SDS011;2975;50.956;6.962;2024-01-11T06:01:04;38.33;;;17.07;;
5898;SDS011;2975;50.956;6.962;2024-01-11T06:03:30;33.27;;;16.67;;
5898;SDS011;2975;50.956;6.962;2024-01-11T06:05:59;37.83;;;17.40;;
5898;SDS011;2975;50.956;6.962;2024-01-11T06:08:25;40.97;;;17.17;;
5898;SDS011;2975;50.956;6.962;2024-01-11T06:10:51;36.20;;;17.13;;
5898;SDS011;2975;50.956;6.962;2024-01-11T06:13:17;41.57;;;18.00;;
5898;SDS011;2975;50.956;6.962;2024-01-11T06:15:43;35.23;;;17.13;;
5898;SDS011;2975;50.956;6.962;2024-01-11T06:18:09;40.53;;;16.57;;
5898;SDS011;2975;50.956;6.962;2024-01-11T06:20:35;41.43;;;17.30;;
5898;SDS011;2975;50.956;6.962;2024-01-11T06:23:00;35.07;;;17.00;;
5898;SDS011;2975;50.956;6.962;2024-01-11T06:25:26;37.63;;;18.07;;
5898;SDS011;2975;50.956;6.962;2024-01-11T06:27:51;33.10;;;16.87;;
5898;SDS011;2975;50.956;6.962;2024-01-11T06:30:17;38.97;;;17.43;;
5898;SDS011;2975;50.956;6.962;2024-01-11T06:32:43;35.13;;;16.63;;
5898;SDS011;2975;50.956;6.962;2024-01-11T06:35:08;37.03;;;17.13;;
5898;SDS011;2975;50.956;6.962;2024-01-11T06:37:34;34.03;;;17.03;;
5898;SDS011;2975;50.956;6.962;2024-01-11T06:40:00;36.83;;;16.77;;
5898;SDS011;2975;50.956;6.962;2024-01-11T06:42:25;38.20;;;16.60;;
5898;SDS011;2975;50.956;6.962;2024-01-11T06:44:51;39.10;;;17.03;;
5898;SDS011;2975;50.956;6.962;2024-01-11T06:47:17;38.77;;;16.77;;
5898;SDS011;2975;50.956;6.962;2024-01-11T06:49:42;43.03;;;17.63;;
5898;SDS011;2975;50.956;6.962;2024-01-11T06:52:08;37.20;;;16.70;;
5898;SDS011;2975;50.956;6.962;2024-01-11T06:54:34;38.23;;;17.50;;
5898;SDS011;2975;50.956;6.962;2024-01-11T06:56:59;42.33;;;18.40;;
5898;SDS011;2975;50.956;6.962;2024-01-11T06:59:25;37.67;;;17.33;;
5898;SDS011;2975;50.956;6.962;2024-01-11T07:01:50;45.20;;;18.53;;
5898;SDS011;2975;50.956;6.962;2024-01-11T07:04:16;37.73;;;18.23;;
5898;SDS011;2975;50.956;6.962;2024-01-11T07:06:42;38.80;;;18.37;;
5898;SDS011;2975;50.956;6.962;2024-01-11T07:09:07;38.70;;;16.97;;
5898;SDS011;2975;50.956;6.962;2024-01-11T07:11:33;36.57;;;16.73;;
5898;SDS011;2975;50.956;6.962;2024-01-11T07:13:58;41.40;;;17.00;;
5898;SDS011;2975;50.956;6.962;2024-01-11T07:16:24;37.43;;;17.53;;
5898;SDS011;2975;50.956;6.962;2024-01-11T07:18:50;39.17;;;18.00;;
5898;SDS011;2975;50.956;6.962;2024-01-11T07:21:22;37.43;;;18.37;;
5898;SDS011;2975;50.956;6.962;2024-01-11T07:23:54;37.90;;;16.57;;
5898;SDS011;2975;50.956;6.962;2024-01-11T07:26:21;42.33;;;18.30;;
5898;SDS011;2975;50.956;6.962;2024-01-11T07:28:48;34.43;;;18.47;;
5898;SDS011;2975;50.956;6.962;2024-01-11T07:31:14;38.70;;;18.80;;
5898;SDS011;2975;50.956;6.962;2024-01-11T07:33:39;36.77;;;18.23;;
5898;SDS011;2975;50.956;6.962;2024-01-11T07:36:05;44.17;;;18.37;;
5898;SDS011;2975;50.956;6.962;2024-01-11T07:38:31;48.47;;;18.83;;
5898;SDS011;2975;50.956;6.962;2024-01-11T07:40:57;44.70;;;17.63;;
5898;SDS011;2975;50.956;6.962;2024-01-11T07:43:22;42.23;;;17.53;;
5898;SDS011;2975;50.956;6.962;2024-01-11T07:45:48;37.23;;;17.83;;
5898;SDS011;2975;50.956;6.962;2024-01-11T07:48:15;49.13;;;18.73;;
5898;SDS011;2975;50.956;6.962;2024-01-11T07:50:40;38.97;;;18.60;;
5898;SDS011;2975;50.956;6.962;2024-01-11T07:53:06;41.13;;;18.13;;
5898;SDS011;2975;50.956;6.962;2024-01-11T07:55:32;42.50;;;20.07;;
5898;SDS011;2975;50.956;6.962;2024-01-11T07:57:59;41.60;;;20.03;;
5898;SDS011;2975;50.956;6.962;2024-01-11T08:00:25;40.97;;;19.63;;
5898;SDS011;2975;50.956;6.962;2024-01-11T08:02:50;42.93;;;19.43;;
5898;SDS011;2975;50.956;6.962;2024-01-11T08:05:16;40.27;;;19.63;;
5898;SDS011;2975;50.956;6.962;2024-01-11T08:07:42;49.83;;;19.60;;
5898;SDS011;2975;50.956;6.962;2024-01-11T08:10:08;41.57;;;19.53;;
5898;SDS011;2975;50.956;6.962;2024-01-11T08:12:36;53.90;;;19.80;;
5898;SDS011;2975;50.956;6.962;2024-01-11T08:15:02;42.20;;;19.37;;
5898;SDS011;2975;50.956;6.962;2024-01-11T08:17:28;40.30;;;19.10;;
5898;SDS011;2975;50.956;6.962;2024-01-11T08:19:54;54.90;;;21.63;;
5898;SDS011;2975;50.956;6.962;2024-01-11T08:22:21;37.23;;;19.03;;
5898;SDS011;2975;50.956;6.962;2024-01-11T08:24:47;42.23;;;19.37;;
5898;SDS011;2975;50.956;6.962;2024-01-11T08:27:13;49.13;;;20.20;;
5898;SDS011;2975;50.956;6.962;2024-01-11T08:29:42;42.37;;;20.27;;
5898;SDS011;2975;50.956;6.962;2024-01-11T08:32:08;39.87;;;20.07;;
5898;SDS011;2975;50.956;6.962;2024-01-11T08:34:34;44.07;;;21.13;;
5898;SDS011;2975;50.956;6.962;2024-01-11T08:36:59;45.97;;;21.30;;
5898;SDS011;2975;50.956;6.962;2024-01-11T08:39:25;48.87;;;20.53;;
5898;SDS011;2975;50.956;6.962;2024-01-11T08:41:50;42.00;;;20.23;;
5898;SDS011;2975;50.956;6.962;2024-01-11T08:44:17;44.67;;;20.87;;
5898;SDS011;2975;50.956;6.962;2024-01-11T08:46:43;46.53;;;21.90;;
5898;SDS011;2975;50.956;6.962;2024-01-11T08:49:09;38.10;;;18.57;;
5898;SDS011;2975;50.956;6.962;2024-01-11T08:51:34;44.80;;;20.30;;
5898;SDS011;2975;50.956;6.962;2024-01-11T08:54:00;45.90;;;21.03;;
5898;SDS011;2975;50.956;6.962;2024-01-11T08:56:26;45.03;;;21.00;;
5898;SDS011;2975;50.956;6.962;2024-01-11T08:58:53;38.93;;;19.77;;
5898;SDS011;2975;50.956;6.962;2024-01-11T09:01:18;45.23;;;20.00;;
5898;SDS011;2975;50.956;6.962;2024-01-11T09:03:45;48.30;;;21.27;;
5898;SDS011;2975;50.956;6.962;2024-01-11T09:06:13;46.40;;;21.00;;
5898;SDS011;2975;50.956;6.962;2024-01-11T09:08:38;48.27;;;19.33;;
5898;SDS011;2975;50.956;6.962;2024-01-11T09:11:06;37.13;;;17.97;;
5898;SDS011;2975;50.956;6.962;2024-01-11T09:13:31;37.97;;;18.20;;
5898;SDS011;2975;50.956;6.962;2024-01-11T09:15:57;39.63;;;18.57;;
5898;SDS011;2975;50.956;6.962;2024-01-11T09:18:23;35.10;;;17.97;;
5898;SDS011;2975;50.956;6.962;2024-01-11T09:20:49;33.83;;;16.20;;
5898;SDS011;2975;50.956;6.962;2024-01-11T09:23:15;40.97;;;19.80;;
5898;SDS011;2975;50.956;6.962;2024-01-11T09:25:41;35.63;;;18.77;;
5898;SDS011;2975;50.956;6.962;2024-01-11T09:28:07;39.47;;;18.10;;
5898;SDS011;2975;50.956;6.962;2024-01-11T09:30:32;38.87;;;18.43;;
5898;SDS011;2975;50.956;6.962;2024-01-11T09:32:58;43.27;;;18.57;;
5898;SDS011;2975;50.956;6.962;2024-01-11T09:35:24;39.63;;;18.13;;
5898;SDS011;2975;50.956;6.962;2024-01-11T09:37:49;41.77;;;19.53;;
5898;SDS011;2975;50.956;6.962;2024-01-11T09:40:16;42.37;;;17.90;;
5898;SDS011;2975;50.956;6.962;2024-01-11T09:42:43;35.93;;;18.27;;
5898;SDS011;2975;50.956;6.962;2024-01-11T09:45:09;37.97;;;18.77;;
5898;SDS011;2975;50.956;6.962;2024-01-11T09:47:38;45.22;;;22.73;;
5898;SDS011;2975;50.956;6.962;2024-01-11T09:50:04;44.83;;;20.93;;
5898;SDS011;2975;50.956;6.962;2024-01-11T09:52:33;42.10;;;20.73;;
5898;SDS011;2975;50.956;6.962;2024-01-11T09:54:59;44.95;;;22.67;;
5898;SDS011;2975;50.956;6.962;2024-01-11T09:57:29;42.00;;;20.73;;
5898;SDS011;2975;50.956;6.962;2024-01-11T09:59:58;42.43;;;20.70;;
5898;SDS011;2975;50.956;6.962;2024-01-11T10:02:24;45.97;;;19.70;;
5898;SDS011;2975;50.956;6.962;2024-01-11T10:04:53;38.73;;;19.73;;
5898;SDS011;2975;50.956;6.962;2024-01-11T10:07:23;44.70;;;20.20;;
5898;SDS011;2975;50.956;6.962;2024-01-11T10:09:49;42.77;;;19.70;;
5898;SDS011;2975;50.956;6.962;2024-01-11T10:12:19;43.67;;;21.27;;
5898;SDS011;2975;50.956;6.962;2024-01-11T10:14:50;37.10;;;18.43;;
5898;SDS011;2975;50.956;6.962;2024-01-11T10:17:17;40.27;;;19.20;;
5898;SDS011;2975;50.956;6.962;2024-01-11T10:19:42;41.17;;;19.13;;
5898;SDS011;2975;50.956;6.962;2024-01-11T10:22:08;40.60;;;20.00;;
5898;SDS011;2975;50.956;6.962;2024-01-11T10:24:37;44.45;;;22.27;;
5898;SDS011;2975;50.956;6.962;2024-01-11T10:27:04;40.27;;;20.60;;
5898;SDS011;2975;50.956;6.962;2024-01-11T10:29:31;39.53;;;19.03;;
5898;SDS011;2975;50.956;6.962;2024-01-11T10:31:57;35.50;;;19.10;;
5898;SDS011;2975;50.956;6.962;2024-01-11T10:34:23;42.67;;;19.40;;
5898;SDS011;2975;50.956;6.962;2024-01-11T10:36:50;43.20;;;19.87;;
5898;SDS011;2975;50.956;6.962;2024-01-11T10:39:16;44.30;;;20.17;;
5898;SDS011;2975;50.956;6.962;2024-01-11T10:41:45;39.97;;;19.03;;
5898;SDS011;2975;50.956;6.962;2024-01-11T10:44:19;38.63;;;19.33;;
5898;SDS011;2975;50.956;6.962;2024-01-11T10:46:49;50.43;;;23.53;;
5898;SDS011;2975;50.956;6.962;2024-01-11T10:49:16;42.93;;;20.37;;
5898;SDS011;2975;50.956;6.962;2024-01-11T10:51:49;48.50;;;20.87;;
5898;SDS011;2975;50.956;6.962;2024-01-11T10:54:21;45.10;;;20.37;;
5898;SDS011;2975;50.956;6.962;2024-01-11T10:56:48;41.80;;;21.20;;
5898;SDS011;2975;50.956;6.962;2024-01-11T10:59:13;38.50;;;19.17;;
5898;SDS011;2975;50.956;6.962;2024-01-11T11:01:41;42.13;;;20.80;;
5898;SDS011;2975;50.956;6.962;2024-01-11T11:04:08;44.83;;;19.90;;
5898;SDS011;2975;50.956;6.962;2024-01-11T11:06:34;44.67;;;21.70;;
5898;SDS011;2975;50.956;6.962;2024-01-11T11:09:01;46.60;;;21.43;;
5898;SDS011;2975;50.956;6.962;2024-01-11T11:11:30;46.23;;;22.97;;
5898;SDS011;2975;50.956;6.962;2024-01-11T11:13:58;45.53;;;22.40;;
5898;SDS011;2975;50.956;6.962;2024-01-11T11:16:25;44.03;;;22.60;;
5898;SDS011;2975;50.956;6.962;2024-01-11T11:18:54;45.83;;;21.63;;
5898;SDS011;2975;50.956;6.962;2024-01-11T11:21:21;48.30;;;23.53;;
5898;SDS011;2975;50.956;6.962;2024-01-11T11:23:47;47.97;;;23.50;;
5898;SDS011;2975;50.956;6.962;2024-01-11T11:26:14;46.33;;;23.07;;
5898;SDS011;2975;50.956;6.962;2024-01-11T11:28:41;43.63;;;22.97;;
5898;SDS011;2975;50.956;6.962;2024-01-11T11:31:07;49.47;;;22.87;;
5898;SDS011;2975;50.956;6.962;2024-01-11T11:33:32;48.30;;;22.90;;
5898;SDS011;2975;50.956;6.962;2024-01-11T11:35:59;49.40;;;22.77;;
5898;SDS011;2975;50.956;6.962;2024-01-11T11:38:29;47.40;;;24.03;;
5898;SDS011;2975;50.956;6.962;2024-01-11T11:40:56;46.63;;;22.83;;
5898;SDS011;2975;50.956;6.962;2024-01-11T11:43:24;43.27;;;22.93;;
5898;SDS011;2975;50.956;6.962;2024-01-11T11:45:51;44.13;;;22.47;;
5898;SDS011;2975;50.956;6.962;2024-01-11T11:53:34;48.93;;;22.27;;
5898;SDS011;2975;50.956;6.962;2024-01-11T11:56:01;50.40;;;21.13;;
5898;SDS011;2975;50.956;6.962;2024-01-11T11:58:27;39.57;;;21.20;;
5898;SDS011;2975;50.956;6.962;2024-01-11T12:01:00;41.20;;;21.67;;
5898;SDS011;2975;50.956;6.962;2024-01-11T12:03:31;42.50;;;22.17;;
5898;SDS011;2975;50.956;6.962;2024-01-11T12:05:59;49.00;;;23.17;;
5898;SDS011;2975;50.956;6.962;2024-01-11T12:08:25;43.63;;;22.33;;
5898;SDS011;2975;50.956;6.962;2024-01-11T12:10:51;47.60;;;23.10;;
5898;SDS011;2975;50.956;6.962;2024-01-11T12:13:17;47.20;;;23.60;;
5898;SDS011;2975;50.956;6.962;2024-01-11T12:15:43;41.27;;;21.37;;
5898;SDS011;2975;50.956;6.962;2024-01-11T12:18:09;46.83;;;22.30;;
5898;SDS011;2975;50.956;6.962;2024-01-11T12:20:35;49.67;;;21.23;;
5898;SDS011;2975;50.956;6.962;2024-01-11T12:23:00;42.07;;;21.20;;
5898;SDS011;2975;50.956;6.962;2024-01-11T12:25:29;40.07;;;20.67;;
5898;SDS011;2975;50.956;6.962;2024-01-11T12:27:56;49.77;;;21.33;;
5898;SDS011;2975;50.956;6.962;2024-01-11T12:30:22;38.57;;;19.20;;
5898;SDS011;2975;50.956;6.962;2024-01-11T12:32:49;39.93;;;21.53;;
5898;SDS011;2975;50.956;6.962;2024-01-11T12:35:15;39.10;;;21.37;;
5898;SDS011;2975;50.956;6.962;2024-01-11T12:37:52;42.03;;;20.30;;
5898;SDS011;2975;50.956;6.962;2024-01-11T12:40:21;46.20;;;21.47;;
5898;SDS011;2975;50.956;6.962;2024-01-11T12:42:47;43.40;;;20.13;;
5898;SDS011;2975;50.956;6.962;2024-01-11T12:45:15;41.43;;;20.20;;
5898;SDS011;2975;50.956;6.962;2024-01-11T12:47:43;43.80;;;21.23;;
5898;SDS011;2975;50.956;6.962;2024-01-11T12:50:09;45.67;;;21.70;;
5898;SDS011;2975;50.956;6.962;2024-01-11T12:52:37;46.00;;;20.53;;
5898;SDS011;2975;50.956;6.962;2024-01-11T12:55:03;44.57;;;22.10;;
5898;SDS011;2975;50.956;6.962;2024-01-11T12:57:29;42.97;;;20.70;;
5898;SDS011;2975;50.956;6.962;2024-01-11T13:00:08;46.50;;;22.27;;
5898;SDS011;2975;50.956;6.962;2024-01-11T13:02:38;43.10;;;20.40;;
5898;SDS011;2975;50.956;6.962;2024-01-11T13:05:05;44.83;;;20.20;;
5898;SDS011;2975;50.956;6.962;2024-01-11T13:07:32;41.27;;;20.90;;
5898;SDS011;2975;50.956;6.962;2024-01-11T13:09:58;40.97;;;20.40;;
5898;SDS011;2975;50.956;6.962;2024-01-11T13:12:24;41.63;;;20.00;;
5898;SDS011;2975;50.956;6.962;2024-01-11T13:14:50;42.83;;;20.90;;
5898;SDS011;2975;50.956;6.962;2024-01-11T13:17:17;50.13;;;21.40;;
5898;SDS011;2975;50.956;6.962;2024-01-11T13:19:43;38.77;;;20.60;;
5898;SDS011;2975;50.956;6.962;2024-01-11T13:22:09;40.97;;;20.63;;
5898;SDS011;2975;50.956;6.962;2024-01-11T13:24:35;39.73;;;21.80;;
5898;SDS011;2975;50.956;6.962;2024-01-11T13:27:01;47.77;;;22.07;;
5898;SDS011;2975;50.956;6.962;2024-01-11T13:29:26;46.00;;;22.00;;
5898;SDS011;2975;50.956;6.962;2024-01-11T13:31:52;40.23;;;21.67;;
5898;SDS011;2975;50.956;6.962;2024-01-11T13:34:18;43.17;;;21.77;;
5898;SDS011;2975;50.956;6.962;2024-01-11T13:36:44;43.60;;;21.37;;
5898;SDS011;2975;50.956;6.962;2024-01-11T13:39:10;52.43;;;22.03;;
5898;SDS011;2975;50.956;6.962;2024-01-11T13:41:36;43.60;;;22.70;;
5898;SDS011;2975;50.956;6.962;2024-01-11T13:44:01;45.47;;;21.90;;
5898;SDS011;2975;50.956;6.962;2024-01-11T13:46:30;45.73;;;22.80;;
5898;SDS011;2975;50.956;6.962;2024-01-11T13:48:56;51.87;;;23.23;;
5898;SDS011;2975;50.956;6.962;2024-01-11T13:51:21;51.67;;;28.63;;
5898;SDS011;2975;50.956;6.962;2024-01-11T13:53:47;44.20;;;23.93;;
5898;SDS011;2975;50.956;6.962;2024-01-11T13:56:13;52.40;;;27.97;;
5898;SDS011;2975;50.956;6.962;2024-01-11T13:58:39;46.43;;;22.33;;
5898;SDS011;2975;50.956;6.962;2024-01-11T14:01:04;44.97;;;22.57;;
5898;SDS011;2975;50.956;6.962;2024-01-11T14:03:30;45.10;;;22.13;;
5898;SDS011;2975;50.956;6.962;2024-01-11T14:05:55;46.37;;;21.93;;
5898;SDS011;2975;50.956;6.962;2024-01-11T14:08:21;45.37;;;22.80;;
5898;SDS011;2975;50.956;6.962;2024-01-11T14:10:47;45.60;;;21.23;;
5898;SDS011;2975;50.956;6.962;2024-01-11T14:13:13;46.95;;;26.25;;
5898;SDS011;2975;50.956;6.962;2024-01-11T14:15:38;44.27;;;22.90;;
5898;SDS011;2975;50.956;6.962;2024-01-11T14:18:05;47.63;;;22.67;;
5898;SDS011;2975;50.956;6.962;2024-01-11T14:20:31;42.97;;;21.73;;
5898;SDS011;2975;50.956;6.962;2024-01-11T14:22:59;43.47;;;20.37;;
5898;SDS011;2975;50.956;6.962;2024-01-11T14:25:24;41.77;;;20.77;;
5898;SDS011;2975;50.956;6.962;2024-01-11T14:27:50;36.97;;;19.57;;
5898;SDS011;2975;50.956;6.962;2024-01-11T14:30:17;42.67;;;21.23;;
5898;SDS011;2975;50.956;6.962;2024-01-11T14:32:43;45.73;;;21.60;;
5898;SDS011;2975;50.956;6.962;2024-01-11T14:35:10;42.23;;;20.47;;
5898;SDS011;2975;50.956;6.962;2024-01-11T14:37:36;36.53;;;19.67;;
5898;SDS011;2975;50.956;6.962;2024-01-11T14:40:06;42.37;;;20.20;;
5898;SDS011;2975;50.956;6.962;2024-01-11T14:42:35;34.47;;;18.77;;
5898;SDS011;2975;50.956;6.962;2024-01-11T14:45:01;40.37;;;20.43;;
5898;SDS011;2975;50.956;6.962;2024-01-11T14:47:29;40.97;;;20.43;;